Time;durP1;ratioP1;P1;durP2;ratioP2;P2;SDS_P1;SDS_P2;PMS_P1;PMS_P2;Temp;Humidity;BMP_temperature;BMP_pressure;BME280_temperature;BME280_humidity;BME280_pressure;Samples;Min_cycle;Max_cycle;Signal;HPM_P1;HPM_P2
2024/03/06 00:02:13;;;;;;;;;;;;;;;6.19;100.00;99519.50;4974969;28;1980;-47
2024/03/06 00:04:39;;;;;;;;;;;;;;;6.19;100.00;99519.50;4974838;28;832;-48
2024/03/06 00:07:06;;;;;;;;;;;;;;;6.13;100.00;99508.88;4974965;28;819;-48
2024/03/06 00:09:33;;;;;;;;;;;;;;;6.16;100.00;99515.56;4974762;28;886;-47
2024/03/06 00:12:00;;;;;;;;;;;;;;;6.14;100.00;99504.16;4974863;28;927;-48
2024/03/06 00:14:26;;;;;;;;;;;;;;;6.12;100.00;99498.28;4974488;28;954;-48
2024/03/06 00:16:55;;;;;;;;;;;;;;;6.08;100.00;99490.03;4974594;28;834;-47
2024/03/06 00:19:22;;;;;;;;;;;;;;;6.06;100.00;99502.53;4974433;28;923;-48
2024/03/06 00:21:48;;;;;;;;;;;;;;;6.04;100.00;99500.19;4974482;28;1882;-47
2024/03/06 00:24:15;;;;;;;;;;;;;;;6.00;100.00;99499.38;4974410;28;847;-47
2024/03/06 00:26:44;;;;;;;;;;;;;;;5.96;100.00;99493.06;4974469;28;863;-47
2024/03/06 00:29:11;;;;;;;;;;;;;;;6.01;100.00;99491.91;4974274;28;784;-47
2024/03/06 00:31:42;;;;;;;;;;;;;;;6.01;100.00;99492.69;4957046;28;917;-47
2024/03/06 00:34:09;;;;;;;;;;;;;;;6.02;100.00;99504.47;4974261;28;914;-47
2024/03/06 00:36:36;;;;;;;;;;;;;;;5.99;100.00;99499.72;4974179;28;843;-48
2024/03/06 00:39:04;;;;;;;;;;;;;;;5.99;100.00;99506.00;4974136;28;787;-49
2024/03/06 00:41:31;;;;;;;;;;;;;;;6.01;100.00;99509.16;4973940;28;1944;-48
2024/03/06 00:43:57;;;;;;;;;;;;;;;6.01;100.00;99511.91;4974116;28;814;-48
2024/03/06 00:46:23;;;;;;;;;;;;;;;6.00;100.00;99513.09;4974176;28;1006;-48
2024/03/06 00:48:49;;;;;;;;;;;;;;;6.01;100.00;99511.91;4973975;28;989;-47
2024/03/06 00:51:16;;;;;;;;;;;;;;;6.06;100.00;99513.50;4973941;28;811;-48
2024/03/06 00:53:43;;;;;;;;;;;;;;;6.07;100.00;99513.13;4973888;28;923;-48
2024/03/06 00:56:09;;;;;;;;;;;;;;;6.10;100.00;99517.06;4973808;28;837;-47
2024/03/06 00:58:36;;;;;;;;;;;;;;;6.13;100.00;99517.09;4974042;28;831;-48
2024/03/06 01:01:03;;;;;;;;;;;;;;;6.13;100.00;99524.56;4973615;28;1910;-48
2024/03/06 01:03:29;;;;;;;;;;;;;;;6.12;100.00;99514.75;4973770;28;943;-47
2024/03/06 01:05:56;;;;;;;;;;;;;;;6.13;100.00;99522.59;4973756;28;882;-49
2024/03/06 01:08:24;;;;;;;;;;;;;;;6.13;100.00;99519.84;4973644;28;827;-47
2024/03/06 01:10:51;;;;;;;;;;;;;;;6.14;100.00;99515.16;4973826;28;930;-47
2024/03/06 01:13:19;;;;;;;;;;;;;;;6.12;100.00;99517.47;4973486;28;883;-47
2024/03/06 01:15:45;;;;;;;;;;;;;;;6.11;100.00;99510.44;4973566;28;870;-48
2024/03/06 01:18:11;;;;;;;;;;;;;;;6.10;100.00;99495.94;4973457;28;866;-48
2024/03/06 01:20:38;;;;;;;;;;;;;;;6.10;100.00;99503.34;4973505;28;866;-47
2024/03/06 01:23:05;;;;;;;;;;;;;;;6.05;100.00;99504.50;4973238;28;1957;-47
2024/03/06 01:25:31;;;;;;;;;;;;;;;5.99;100.00;99507.97;4973625;28;902;-47
2024/03/06 01:27:58;;;;;;;;;;;;;;;5.74;100.00;99508.50;4973336;28;835;-47
2024/03/06 01:30:25;;;;;;;;;;;;;;;5.48;100.00;99512.94;4973405;28;889;-48
2024/03/06 01:32:51;;;;;;;;;;;;;;;5.38;100.00;99513.59;4973275;28;866;-47
2024/03/06 01:35:18;;;;;;;;;;;;;;;5.28;100.00;99503.31;4973276;28;858;-48
2024/03/06 01:37:44;;;;;;;;;;;;;;;5.24;100.00;99511.47;4971888;28;1312;-48
2024/03/06 01:40:12;;;;;;;;;;;;;;;5.23;100.00;99531.06;4973218;28;859;-47
2024/03/06 01:42:38;;;;;;;;;;;;;;;5.24;100.00;99524.41;4972965;28;1965;-48
2024/03/06 01:45:07;;;;;;;;;;;;;;;5.28;100.00;99530.72;4973190;28;815;-49
2024/03/06 01:47:33;;;;;;;;;;;;;;;5.28;100.00;99538.94;4973192;28;1360;-48
2024/03/06 01:50:01;;;;;;;;;;;;;;;5.28;100.00;99536.19;4973017;28;882;-47
2024/03/06 01:52:28;;;;;;;;;;;;;;;5.30;100.00;99534.66;4973063;28;886;-47
2024/03/06 01:54:56;;;;;;;;;;;;;;;5.30;100.00;99544.81;4972561;28;936;-48
2024/03/06 01:57:23;;;;;;;;;;;;;;;5.34;100.00;99545.66;4972970;28;936;-48
2024/03/06 01:59:49;;;;;;;;;;;;;;;5.36;100.00;99545.31;4972895;28;1276;-47
2024/03/06 02:02:16;;;;;;;;;;;;;;;5.36;100.00;99542.56;4972835;28;1997;-48
2024/03/06 02:04:42;;;;;;;;;;;;;;;5.35;100.00;99551.94;4972888;28;910;-49
2024/03/06 02:07:12;;;;;;;;;;;;;;;5.35;100.00;99547.22;4972909;28;831;-50
2024/03/06 02:09:40;;;;;;;;;;;;;;;5.35;100.00;99549.97;4972951;28;918;-48
2024/03/06 02:12:08;;;;;;;;;;;;;;;5.36;100.00;99557.03;4972867;28;820;-48
2024/03/06 02:14:35;;;;;;;;;;;;;;;5.37;100.00;99558.59;4972750;28;910;-48
2024/03/06 02:17:02;;;;;;;;;;;;;;;5.38;100.00;99557.47;4972693;28;859;-47
2024/03/06 02:19:41;;;;;;;;;;;;;;;5.41;100.00;99555.91;4972794;28;863;-48
2024/03/06 02:22:08;;;;;;;;;;;;;;;5.42;100.00;99563.78;4972580;28;1958;-49
2024/03/06 02:24:35;;;;;;;;;;;;;;;5.43;100.00;99567.31;4972734;28;961;-47
2024/03/06 02:27:02;;;;;;;;;;;;;;;5.46;100.00;99564.59;4955504;28;856;-48
2024/03/06 02:29:29;;;;;;;;;;;;;;;5.54;100.00;99570.94;4972653;28;818;-48
2024/03/06 02:31:55;;;;;;;;;;;;;;;5.57;100.00;99572.16;4972720;28;1020;-49
2024/03/06 02:34:21;;;;;;;;;;;;;;;5.55;100.00;99567.06;4972697;28;847;-47
2024/03/06 02:36:48;;;;;;;;;;;;;;;5.55;100.00;99578.03;4973002;28;815;-47
2024/03/06 02:39:14;;;;;;;;;;;;;;;5.61;100.00;99572.97;4972873;28;836;-48
2024/03/06 02:41:41;;;;;;;;;;;;;;;5.66;100.00;99581.66;4972654;28;1951;-48
2024/03/06 02:44:07;;;;;;;;;;;;;;;5.69;100.00;99578.16;4972686;28;894;-48
2024/03/06 02:46:32;;;;;;;;;;;;;;;5.69;100.00;99582.88;4972816;28;1327;-49
2024/03/06 02:49:00;;;;;;;;;;;;;;;5.67;100.00;99580.50;4972779;28;826;-48
2024/03/06 02:51:26;;;;;;;;;;;;;;;5.69;100.00;99585.63;4972807;28;929;-48
2024/03/06 02:53:53;;;;;;;;;;;;;;;5.64;100.00;99586.75;4972751;28;945;-48
2024/03/06 02:56:20;;;;;;;;;;;;;;;5.67;100.00;99579.72;4972607;28;943;-47
2024/03/06 02:58:46;;;;;;;;;;;;;;;5.68;100.00;99592.28;4972591;28;1229;-48
2024/03/06 03:01:15;;;;;;;;;;;;;;;5.66;100.00;99592.63;4972488;28;1979;-49
2024/03/06 03:03:43;;;;;;;;;;;;;;;5.67;100.00;99596.16;4972707;28;851;-50
2024/03/06 03:06:10;;;;;;;;;;;;;;;5.72;100.00;99593.88;4972381;28;886;-49
2024/03/06 03:08:38;;;;;;;;;;;;;;;5.74;100.00;99601.75;4975799;28;878;-48
2024/03/06 03:11:04;;;;;;;;;;;;;;;5.73;100.00;99605.63;4975754;28;831;-48
2024/03/06 03:13:31;;;;;;;;;;;;;;;5.73;100.00;99609.16;4958789;28;879;-48
2024/03/06 03:15:58;;;;;;;;;;;;;;;5.75;100.00;99603.31;4975731;28;823;-48
2024/03/06 03:18:25;;;;;;;;;;;;;;;5.74;100.00;99601.75;4975691;28;864;-49
2024/03/06 03:20:51;;;;;;;;;;;;;;;5.75;100.00;99606.06;4958316;28;1952;-49
2024/03/06 03:23:21;;;;;;;;;;;;;;;5.70;100.00;99609.94;4975748;28;898;-48
2024/03/06 03:25:51;;;;;;;;;;;;;;;5.68;100.00;99609.50;4975712;28;997;-48
2024/03/06 03:28:18;;;;;;;;;;;;;;;5.67;100.00;99609.88;4975454;28;866;-47
2024/03/06 03:30:45;;;;;;;;;;;;;;;5.68;100.00;99612.25;4975739;28;886;-47
2024/03/06 03:33:11;;;;;;;;;;;;;;;5.72;100.00;99604.84;4975559;28;1005;-48
2024/03/06 03:35:38;;;;;;;;;;;;;;;5.70;100.00;99607.19;4975421;28;843;-48
2024/03/06 03:38:04;;;;;;;;;;;;;;;5.60;100.00;99607.06;4975157;28;869;-47
2024/03/06 03:40:32;;;;;;;;;;;;;;;5.41;100.00;99606.03;4975559;28;828;-47
2024/03/06 03:42:59;;;;;;;;;;;;;;;5.27;100.00;99616.81;4975024;28;1944;-48
2024/03/06 03:45:26;;;;;;;;;;;;;;;5.16;100.00;99610.41;4975129;28;1139;-48
2024/03/06 03:47:52;;;;;;;;;;;;;;;5.07;100.00;99614.19;4974833;28;1384;-48
2024/03/06 03:50:18;;;;;;;;;;;;;;;5.02;100.00;99611.78;4975157;28;828;-48
2024/03/06 03:52:45;;;;;;;;;;;;;;;4.98;100.00;99613.69;4974941;28;928;-48
2024/03/06 03:55:12;;;;;;;;;;;;;;;5.00;100.00;99616.84;4975269;28;905;-48
2024/03/06 03:57:38;;;;;;;;;;;;;;;4.99;100.00;99620.72;4975084;28;847;-48
2024/03/06 04:00:10;;;;;;;;;;;;;;;4.98;100.00;99626.59;4974944;28;811;-47
2024/03/06 04:02:38;;;;;;;;;;;;;;;4.95;100.00;99628.13;4975042;28;1906;-48
2024/03/06 04:05:04;;;;;;;;;;;;;;;4.87;100.00;99626.44;4974742;28;856;-48
2024/03/06 04:07:31;;;;;;;;;;;;;;;4.84;100.00;99635.38;4974722;28;907;-49
2024/03/06 04:09:58;;;;;;;;;;;;;;;4.93;100.00;99630.44;4974527;28;904;-49
2024/03/06 04:12:25;;;;;;;;;;;;;;;5.02;100.00;99641.91;4974637;28;978;-50
2024/03/06 04:14:52;;;;;;;;;;;;;;;5.10;100.00;99642.81;4974567;28;867;-49
2024/03/06 04:17:18;;;;;;;;;;;;;;;5.00;100.00;99643.44;4974256;28;934;-48
2024/03/06 04:19:45;;;;;;;;;;;;;;;4.98;100.00;99645.75;4974568;28;843;-49
2024/03/06 04:22:14;;;;;;;;;;;;;;;4.96;100.00;99648.09;4974331;28;1906;-49
2024/03/06 04:24:42;;;;;;;;;;;;;;;4.97;100.00;99644.97;4974468;28;808;-49
2024/03/06 04:27:09;;;;;;;;;;;;;;;4.91;100.00;99647.25;4974374;28;884;-50
2024/03/06 04:29:35;;;;;;;;;;;;;;;4.84;100.00;99644.41;4974597;28;858;-48
2024/03/06 04:32:01;;;;;;;;;;;;;;;4.86;100.00;99644.78;4974219;28;1175;-49
2024/03/06 04:34:28;;;;;;;;;;;;;;;4.86;100.00;99646.75;4974387;28;870;-48
2024/03/06 04:36:53;;;;;;;;;;;;;;;4.84;100.00;99652.63;4957011;28;1823;-52
2024/03/06 04:39:20;;;;;;;;;;;;;;;4.87;100.00;99657.34;4974274;28;878;-48
2024/03/06 04:41:46;;;;;;;;;;;;;;;4.93;100.00;99646.88;4973986;28;1886;-48
2024/03/06 04:44:13;;;;;;;;;;;;;;;4.94;100.00;99648.44;4974152;28;870;-49
2024/03/06 04:46:39;;;;;;;;;;;;;;;4.97;100.00;99644.97;4956599;28;1377;-49
2024/03/06 04:49:05;;;;;;;;;;;;;;;5.03;100.00;99651.69;4974379;28;986;-48
2024/03/06 04:51:32;;;;;;;;;;;;;;;5.02;100.00;99646.63;4973858;28;958;-48
2024/03/06 04:53:58;;;;;;;;;;;;;;;5.01;100.00;99656.75;4973785;28;949;-50
2024/03/06 04:56:25;;;;;;;;;;;;;;;5.06;100.00;99661.94;4973952;28;823;-49
2024/03/06 04:58:52;;;;;;;;;;;;;;;5.11;100.00;99660.81;4974085;28;886;-51
2024/03/06 05:01:19;;;;;;;;;;;;;;;5.19;100.00;99667.22;4973656;28;1911;-50
2024/03/06 05:03:45;;;;;;;;;;;;;;;5.30;100.00;99660.72;4973775;28;849;-50
2024/03/06 05:06:11;;;;;;;;;;;;;;;5.36;100.00;99672.16;4973927;28;861;-50
2024/03/06 05:08:38;;;;;;;;;;;;;;;5.31;100.00;99673.28;4973818;28;915;-49
2024/03/06 05:11:05;;;;;;;;;;;;;;;5.22;100.00;99663.72;4973860;28;1198;-48
2024/03/06 05:13:31;;;;;;;;;;;;;;;5.16;100.00;99667.94;4973866;28;804;-48
2024/03/06 05:15:58;;;;;;;;;;;;;;;5.12;100.00;99670.63;4973615;28;1183;-48
2024/03/06 05:18:24;;;;;;;;;;;;;;;5.13;100.00;99663.22;4973510;28;1284;-48
2024/03/06 05:20:51;;;;;;;;;;;;;;;5.22;100.00;99672.72;4973347;28;1886;-48
2024/03/06 05:23:17;;;;;;;;;;;;;;;5.28;100.00;99667.72;4973383;28;832;-48
2024/03/06 05:25:44;;;;;;;;;;;;;;;5.36;100.00;99669.41;4973648;28;891;-49
2024/03/06 05:28:11;;;;;;;;;;;;;;;5.47;100.00;99673.09;4973278;28;871;-48
2024/03/06 05:30:38;;;;;;;;;;;;;;;5.52;100.00;99672.75;4972561;28;869;-49
2024/03/06 05:33:05;;;;;;;;;;;;;;;5.49;100.00;99673.50;4973461;28;890;-48
2024/03/06 05:35:31;;;;;;;;;;;;;;;5.58;100.00;99686.94;4973366;28;867;-48
2024/03/06 05:37:57;;;;;;;;;;;;;;;5.64;100.00;99679.19;4973495;28;827;-48
2024/03/06 05:40:23;;;;;;;;;;;;;;;5.65;100.00;99684.28;4973136;28;882;-49
2024/03/06 05:42:51;;;;;;;;;;;;;;;5.66;100.00;99685.88;4973081;28;1989;-48
2024/03/06 05:45:17;;;;;;;;;;;;;;;5.62;100.00;99687.78;4972997;28;1082;-48
2024/03/06 05:47:44;;;;;;;;;;;;;;;5.65;100.00;99687.00;4972995;28;1213;-48
2024/03/06 05:50:10;;;;;;;;;;;;;;;5.65;100.00;99702.69;4972954;28;852;-48
2024/03/06 05:52:37;;;;;;;;;;;;;;;5.65;100.00;99697.19;4973088;28;843;-49
2024/03/06 05:55:06;;;;;;;;;;;;;;;5.62;100.00;99706.19;4972910;28;921;-49
2024/03/06 05:57:32;;;;;;;;;;;;;;;5.69;100.00;99709.78;4972914;28;966;-48
2024/03/06 05:59:58;;;;;;;;;;;;;;;5.79;100.00;99710.31;4972946;28;915;-47
2024/03/06 06:02:25;;;;;;;;;;;;;;;5.91;100.00;99704.56;4971590;28;1910;-48
2024/03/06 06:04:51;;;;;;;;;;;;;;;6.01;100.00;99709.44;4972862;28;883;-48
2024/03/06 06:07:18;;;;;;;;;;;;;;;6.04;100.00;99718.88;4972902;28;912;-48
2024/03/06 06:09:44;;;;;;;;;;;;;;;6.05;100.00;99729.47;4972882;28;891;-48
2024/03/06 06:12:11;;;;;;;;;;;;;;;6.05;100.00;99725.97;4972765;28;894;-48
2024/03/06 06:14:37;;;;;;;;;;;;;;;6.10;100.00;99729.16;4972888;28;831;-48
2024/03/06 06:17:04;;;;;;;;;;;;;;;6.27;100.00;99725.06;4972828;28;904;-47
2024/03/06 06:19:31;;;;;;;;;;;;;;;6.38;100.00;99722.44;4972902;28;795;-47
2024/03/06 06:21:57;;;;;;;;;;;;;;;6.44;100.00;99736.59;4972740;28;1882;-48
2024/03/06 06:24:24;;;;;;;;;;;;;;;6.59;100.00;99743.78;4972867;28;866;-49
2024/03/06 06:26:52;;;;;;;;;;;;;;;6.69;100.00;99747.84;4972799;28;843;-47
2024/03/06 06:29:19;;;;;;;;;;;;;;;6.75;100.00;99743.59;4972651;28;924;-47
2024/03/06 06:31:45;;;;;;;;;;;;;;;6.93;100.00;99746.47;4972759;28;846;-47
2024/03/06 06:34:11;;;;;;;;;;;;;;;7.06;100.00;99745.03;4972582;28;942;-48
2024/03/06 06:36:40;;;;;;;;;;;;;;;7.08;100.00;99745.47;4972749;28;847;-48
2024/03/06 06:39:08;;;;;;;;;;;;;;;7.04;100.00;99749.31;4972626;28;946;-47
2024/03/06 06:41:34;;;;;;;;;;;;;;;7.04;100.00;99752.88;4974451;28;1945;-48
2024/03/06 06:44:02;;;;;;;;;;;;;;;7.11;100.00;99749.41;4976529;28;898;-48
2024/03/06 06:46:29;;;;;;;;;;;;;;;7.05;100.00;99754.44;4976246;28;1400;-48
2024/03/06 06:48:55;;;;;;;;;;;;;;;7.30;100.00;99749.16;4976161;28;859;-48
2024/03/06 06:51:23;;;;;;;;;;;;;;;7.47;100.00;99750.44;4976162;28;842;-47
2024/03/06 06:53:49;;;;;;;;;;;;;;;7.73;100.00;99754.94;4976081;28;899;-48
2024/03/06 06:56:16;;;;;;;;;;;;;;;7.96;100.00;99760.16;4976298;28;921;-49
2024/03/06 06:58:43;;;;;;;;;;;;;;;8.12;100.00;99754.31;4975994;28;807;-48
2024/03/06 07:01:10;;;;;;;;;;;;;;;8.33;100.00;99764.63;4976028;28;1910;-48
2024/03/06 07:03:36;;;;;;;;;;;;;;;8.28;100.00;99773.28;4975940;28;858;-48
2024/03/06 07:06:03;;;;;;;;;;;;;;;8.04;100.00;99776.72;4975974;28;909;-48
2024/03/06 07:08:30;;;;;;;;;;;;;;;7.96;100.00;99781.41;4975838;28;823;-49
2024/03/06 07:10:57;;;;;;;;;;;;;;;8.21;100.00;99773.25;4975934;28;807;-48
2024/03/06 07:13:24;;;;;;;;;;;;;;;8.06;100.00;99779.88;4975665;28;917;-48
2024/03/06 07:15:51;;;;;;;;;;;;;;;7.97;100.00;99778.25;4975653;28;848;-48
2024/03/06 07:18:18;;;;;;;;;;;;;;;7.67;100.00;99780.44;4975640;28;839;-49
2024/03/06 07:20:45;;;;;;;;;;;;;;;7.54;100.00;99789.00;4975576;28;927;-47
2024/03/06 07:23:12;;;;;;;;;;;;;;;7.32;100.00;99790.81;4975436;28;1898;-47
2024/03/06 07:25:38;;;;;;;;;;;;;;;7.22;100.00;99793.47;4975405;28;968;-48
2024/03/06 07:28:05;;;;;;;;;;;;;;;7.38;100.00;99802.22;4975573;28;967;-49
2024/03/06 07:30:31;;;;;;;;;;;;;;;7.76;100.00;99800.91;4975394;28;839;-49
2024/03/06 07:32:58;;;;;;;;;;;;;;;8.65;100.00;99804.53;4975431;28;903;-49
2024/03/06 07:35:24;;;;;;;;;;;;;;;9.02;100.00;99811.69;4975269;28;868;-49
2024/03/06 07:37:50;;;;;;;;;;;;;;;9.51;100.00;99813.69;4975278;28;981;-49
2024/03/06 07:40:17;;;;;;;;;;;;;;;8.93;100.00;99817.59;4975118;28;1489;-49
2024/03/06 07:42:44;;;;;;;;;;;;;;;8.21;100.00;99817.28;4975218;28;1969;-49
2024/03/06 07:45:11;;;;;;;;;;;;;;;7.86;100.00;99824.19;4975399;28;867;-47
2024/03/06 07:47:38;;;;;;;;;;;;;;;7.82;100.00;99825.34;4975179;28;1444;-48
2024/03/06 07:50:06;;;;;;;;;;;;;;;7.32;100.00;99826.53;4975154;28;961;-48
2024/03/06 07:52:32;;;;;;;;;;;;;;;7.40;100.00;99830.13;4974453;28;889;-48
2024/03/06 07:54:59;;;;;;;;;;;;;;;7.73;100.00;99834.72;4973724;28;1596;-48
2024/03/06 07:57:26;;;;;;;;;;;;;;;7.78;100.00;99834.34;4974913;28;908;-48
2024/03/06 07:59:54;;;;;;;;;;;;;;;7.88;100.00;99827.34;4974984;28;839;-48
2024/03/06 08:02:21;;;;;;;;;;;;;;;7.57;100.00;99835.00;4974764;28;1914;-48
2024/03/06 08:04:48;;;;;;;;;;;;;;;7.44;100.00;99830.16;4975038;28;932;-48
2024/03/06 08:07:14;;;;;;;;;;;;;;;7.54;100.00;99841.25;4974812;28;942;-48
2024/03/06 08:09:41;;;;;;;;;;;;;;;7.76;100.00;99847.69;4974605;28;934;-47
2024/03/06 08:12:07;;;;;;;;;;;;;;;7.91;100.00;99856.84;4974825;28;827;-47
2024/03/06 08:14:34;;;;;;;;;;;;;;;7.33;100.00;99855.59;4974838;28;862;-48
2024/03/06 08:17:02;;;;;;;;;;;;;;;7.19;100.00;99854.69;4974965;28;902;-47
2024/03/06 08:19:29;;;;;;;;;;;;;;;7.44;100.00;99855.69;4974540;28;899;-48
2024/03/06 08:21:56;;;;;;;;;;;;;;;7.40;100.00;99857.63;4974443;28;1882;-48
2024/03/06 08:24:23;;;;;;;;;;;;;;;7.34;100.00;99859.16;4974733;28;871;-47
2024/03/06 08:26:49;;;;;;;;;;;;;;;7.52;100.00;99848.31;4974592;28;813;-48
2024/03/06 08:29:15;;;;;;;;;;;;;;;7.56;100.00;99849.91;4974315;28;841;-48
2024/03/06 08:31:42;;;;;;;;;;;;;;;7.59;100.00;99853.84;4974345;28;847;-47
2024/03/06 08:34:08;;;;;;;;;;;;;;;7.68;100.00;99848.03;4974377;28;827;-48
2024/03/06 08:36:35;;;;;;;;;;;;;;;7.89;100.00;99844.66;4974229;28;1175;-48
2024/03/06 08:39:01;;;;;;;;;;;;;;;7.65;100.00;99843.31;4974196;28;832;-49
2024/03/06 08:41:28;;;;;;;;;;;;;;;7.50;100.00;99840.44;4974157;28;1947;-48
2024/03/06 08:43:54;;;;;;;;;;;;;;;7.66;100.00;99839.38;4974246;28;787;-49
2024/03/06 08:46:20;;;;;;;;;;;;;;;7.67;100.00;99835.47;4974419;28;962;-50
2024/03/06 08:48:47;;;;;;;;;;;;;;;8.11;100.00;99838.09;4974144;28;1454;-48
2024/03/06 08:51:14;;;;;;;;;;;;;;;8.23;100.00;99838.94;4974138;28;895;-48
2024/03/06 08:53:40;;;;;;;;;;;;;;;8.16;100.00;99823.97;4974139;28;835;-47
2024/03/06 08:56:07;;;;;;;;;;;;;;;8.20;100.00;99837.75;4973967;28;1187;-47
2024/03/06 08:58:34;;;;;;;;;;;;;;;8.05;100.00;99839.66;4973866;28;816;-48
2024/03/06 09:01:00;;;;;;;;;;;;;;;8.11;100.00;99848.34;4973673;28;1985;-48
2024/03/06 09:03:26;;;;;;;;;;;;;;;8.12;100.00;99852.66;4973574;28;864;-49
2024/03/06 09:05:53;;;;;;;;;;;;;;;8.26;98.18;99851.97;4972952;28;863;-49
2024/03/06 09:08:20;;;;;;;;;;;;;;;8.07;98.06;99845.56;4973596;28;887;-49
2024/03/06 09:10:45;;;;;;;;;;;;;;;8.26;98.80;99851.97;4973710;28;882;-49
2024/03/06 09:13:12;;;;;;;;;;;;;;;8.23;96.63;99850.75;4973535;28;927;-48
2024/03/06 09:15:40;;;;;;;;;;;;;;;8.53;95.96;99853.28;4973603;28;1021;-48
2024/03/06 09:46:51;;;;;;;;;;;;;;;9.14;89.79;99838.88;5397852;22;1899;-46
2024/03/06 09:49:23;;;;;;;;;;;;;;;9.54;84.20;99843.25;4992538;28;835;-48
2024/03/06 09:51:50;;;;;;;;;;;;;;;9.66;81.86;99842.06;4992533;28;823;-46
2024/03/06 09:54:17;;;;;;;;;;;;;;;9.84;79.09;99844.03;4992366;28;919;-47
2024/03/06 09:56:44;;;;;;;;;;;;;;;9.53;80.91;99849.94;4992495;28;870;-47
2024/03/06 09:59:11;;;;;;;;;;;;;;;9.55;84.12;99822.75;4992304;28;855;-46
2024/03/06 10:01:58;;;;;;;;;;;;;;;9.69;85.30;99849.56;4992417;28;1915;-46
2024/03/06 10:04:25;;;;;;;;;;;;;;;10.18;79.63;99850.66;4992323;28;2027;-46
2024/03/06 10:06:59;;;;;;;;;;;;;;;10.25;74.59;99849.84;4992267;28;927;-48
2024/03/06 10:09:26;;;;;;;;;;;;;;;10.45;75.65;99852.19;4975129;28;1516;-47
2024/03/06 10:11:53;;;;;;;;;;;;;;;10.44;74.99;99853.38;4992518;28;884;-50
2024/03/06 10:14:20;;;;;;;;;;;;;;;10.91;71.31;99843.69;4992465;28;893;-48
2024/03/06 10:16:57;;;;;;;;;;;;;;;11.52;69.46;99840.50;4994860;28;886;-49
2024/03/06 10:19:25;;;;;;;;;;;;;;;11.63;67.73;99837.66;4996132;28;863;-47
2024/03/06 10:21:52;;;;;;;;;;;;;;;11.53;68.32;99844.06;4996041;28;1894;-49
2024/03/06 10:24:20;;;;;;;;;;;;;;;11.17;67.01;99831.25;4995981;28;897;-47
2024/03/06 10:26:47;;;;;;;;;;;;;;;11.42;66.99;99830.31;4996072;28;918;-47
2024/03/06 10:29:18;;;;;;;;;;;;;;;11.65;65.51;99835.25;4996024;28;811;-47
2024/03/06 10:31:55;;;;;;;;;;;;;;;11.70;66.29;99822.94;4996227;28;965;-48
2024/03/06 10:34:22;;;;;;;;;;;;;;;11.72;64.81;99826.88;4978468;28;883;-48
2024/03/06 10:36:54;;;;;;;;;;;;;;;11.89;64.18;99822.41;4995817;28;851;-47
2024/03/06 10:39:21;;;;;;;;;;;;;;;12.11;62.01;99819.41;4995866;28;890;-47
2024/03/06 10:41:51;;;;;;;;;;;;;;;12.09;60.70;99811.50;4995653;28;1890;-47
2024/03/06 10:44:20;;;;;;;;;;;;;;;11.62;62.12;99822.22;4995822;28;879;-47
2024/03/06 10:46:53;;;;;;;;;;;;;;;11.74;63.69;99823.72;4995522;28;1232;-48
2024/03/06 10:49:20;;;;;;;;;;;;;;;11.71;59.87;99824.50;4995750;28;895;-48
2024/03/06 10:51:46;;;;;;;;;;;;;;;12.01;61.49;99818.31;4995890;28;866;-48
2024/03/06 10:54:13;;;;;;;;;;;;;;;12.24;59.05;99821.22;4995771;28;896;-48
2024/03/06 10:56:42;;;;;;;;;;;;;;;12.20;60.82;99817.69;4995664;28;1035;-50
2024/03/06 10:59:11;;;;;;;;;;;;;;;12.04;61.92;99809.19;4995435;28;897;-49
2024/03/06 11:01:37;;;;;;;;;;;;;;;12.04;60.23;99814.72;4995200;28;1914;-48
2024/03/06 11:04:05;;;;;;;;;;;;;;;12.35;61.98;99806.44;4995410;28;863;-48
2024/03/06 11:06:33;;;;;;;;;;;;;;;12.57;57.82;99810.53;4995223;28;923;-47
2024/03/06 11:09:00;;;;;;;;;;;;;;;12.09;58.69;99821.78;4995224;28;886;-47
2024/03/06 11:11:26;;;;;;;;;;;;;;;12.16;58.70;99824.47;4995456;28;888;-48
2024/03/06 11:13:59;;;;;;;;;;;;;;;12.40;57.96;99808.78;4995332;28;795;-49
2024/03/06 11:16:29;;;;;;;;;;;;;;;12.75;57.21;99806.75;4995169;28;805;-49
2024/03/06 11:19:08;;;;;;;;;;;;;;;12.62;55.15;99798.19;4995082;28;855;-47
2024/03/06 11:21:34;;;;;;;;;;;;;;;12.44;56.54;99790.91;4995244;28;1886;-48
2024/03/06 11:24:16;;;;;;;;;;;;;;;12.40;58.31;99783.84;4995014;28;906;-49
2024/03/06 11:26:56;;;;;;;;;;;;;;;12.33;56.40;99798.56;4994693;28;844;-48
2024/03/06 11:29:24;;;;;;;;;;;;;;;12.61;57.20;99791.88;4977171;28;847;-48
2024/03/06 11:32:17;;;;;;;;;;;;;;;12.82;58.69;99793.56;4994956;28;831;-48
2024/03/06 11:34:44;;;;;;;;;;;;;;;13.35;53.72;99779.31;4992509;28;1572;-48
2024/03/06 11:37:10;;;;;;;;;;;;;;;13.22;55.85;99779.09;4994776;28;895;-48
2024/03/06 11:39:38;;;;;;;;;;;;;;;13.55;54.59;99777.38;4994818;28;911;-49
2024/03/06 11:42:08;;;;;;;;;;;;;;;13.45;55.43;99784.69;4994850;28;1894;-47
2024/03/06 11:44:35;;;;;;;;;;;;;;;13.46;52.39;99780.72;4994747;28;839;-49
2024/03/06 11:47:03;;;;;;;;;;;;;;;13.72;54.77;99774.69;4994407;28;1194;-47
2024/03/06 11:49:34;;;;;;;;;;;;;;;13.96;53.37;99775.47;4994793;28;1211;-48
2024/03/06 11:52:09;;;;;;;;;;;;;;;14.01;51.77;99756.28;4994450;28;939;-47
2024/03/06 11:54:36;;;;;;;;;;;;;;;13.37;53.02;99774.13;4977081;28;827;-48
2024/03/06 11:57:04;;;;;;;;;;;;;;;13.22;54.49;99779.09;4994410;28;931;-49
2024/03/06 11:59:32;;;;;;;;;;;;;;;13.39;54.35;99777.25;4994413;28;870;-48
2024/03/06 12:02:03;;;;;;;;;;;;;;;13.32;55.46;99785.72;4994437;28;1922;-47
2024/03/06 12:04:31;;;;;;;;;;;;;;;13.30;51.74;99775.03;4994348;28;827;-48
2024/03/06 12:07:07;;;;;;;;;;;;;;;13.44;52.63;99780.34;4976857;28;1483;-48
2024/03/06 12:09:35;;;;;;;;;;;;;;;14.08;51.14;99778.38;4994244;28;851;-48
2024/03/06 12:12:03;;;;;;;;;;;;;;;13.72;51.19;99783.03;4994292;28;826;-48
2024/03/06 12:14:30;;;;;;;;;;;;;;;13.84;52.50;99779.63;4994025;28;884;-49
2024/03/06 12:16:57;;;;;;;;;;;;;;;14.26;51.12;99778.03;4994061;28;919;-52
2024/03/06 12:19:28;;;;;;;;;;;;;;;14.21;51.15;99775.75;4994029;28;943;-49
2024/03/06 12:21:54;;;;;;;;;;;;;;;13.47;52.76;99790.59;4993809;28;1953;-48
2024/03/06 12:24:21;;;;;;;;;;;;;;;13.12;54.18;99786.41;4994023;28;823;-48
2024/03/06 12:26:58;;;;;;;;;;;;;;;12.41;55.78;99786.16;4994172;28;831;-46
2024/03/06 12:29:28;;;;;;;;;;;;;;;11.75;57.69;99787.28;4994284;28;1244;-47
2024/03/06 12:31:54;;;;;;;;;;;;;;;12.04;59.45;99787.03;4993902;28;949;-46
2024/03/06 12:34:21;;;;;;;;;;;;;;;13.34;56.06;99792.41;4993758;28;935;-48
2024/03/06 12:36:47;;;;;;;;;;;;;;;13.70;52.66;99789.03;4993576;28;937;-49
2024/03/06 12:39:17;;;;;;;;;;;;;;;13.80;52.90;99795.56;4993619;28;946;-48
2024/03/06 12:41:45;;;;;;;;;;;;;;;13.98;51.50;99790.50;4993929;28;1951;-48
2024/03/06 12:44:11;;;;;;;;;;;;;;;13.70;52.34;99786.25;4993442;28;973;-47
2024/03/06 12:46:38;;;;;;;;;;;;;;;13.47;51.78;99793.38;4993383;28;1262;-47
2024/03/06 12:49:04;;;;;;;;;;;;;;;12.93;53.59;99789.84;4993554;28;865;-47
2024/03/06 12:51:32;;;;;;;;;;;;;;;12.50;55.53;99790.44;4993244;28;1102;-46
2024/03/06 12:53:59;;;;;;;;;;;;;;;12.35;55.95;99792.59;4993284;28;867;-47
2024/03/06 12:56:25;;;;;;;;;;;;;;;12.28;56.70;99795.47;4993246;28;858;-47
2024/03/06 12:58:51;;;;;;;;;;;;;;;12.45;56.24;99786.91;4993557;28;890;-47
2024/03/06 13:01:19;;;;;;;;;;;;;;;12.63;55.96;99796.97;4993027;28;1910;-48
2024/03/06 13:03:46;;;;;;;;;;;;;;;13.45;55.79;99792.22;4993325;28;847;-47
2024/03/06 13:06:12;;;;;;;;;;;;;;;14.13;52.87;99785.44;4993101;28;1013;-46
2024/03/06 13:08:39;;;;;;;;;;;;;;;13.24;54.38;99796.09;4993096;28;827;-49
2024/03/06 13:11:05;;;;;;;;;;;;;;;13.06;54.19;99796.41;4993196;28;831;-48
2024/03/06 13:13:34;;;;;;;;;;;;;;;13.14;54.28;99788.72;4993316;28;831;-49
2024/03/06 13:16:00;;;;;;;;;;;;;;;12.63;56.05;99795.00;4992898;28;871;-48
2024/03/06 13:18:27;;;;;;;;;;;;;;;12.91;55.95;99789.47;4992991;28;906;-46
2024/03/06 13:20:54;;;;;;;;;;;;;;;12.84;55.41;99791.16;4992892;28;924;-48
2024/03/06 13:23:22;;;;;;;;;;;;;;;12.87;55.82;99795.09;4992708;28;1961;-49
2024/03/06 13:25:48;;;;;;;;;;;;;;;12.96;55.13;99789.78;4992773;28;872;-47
2024/03/06 13:28:14;;;;;;;;;;;;;;;12.82;55.17;99790.00;4975362;28;1196;-47
2024/03/06 13:30:41;;;;;;;;;;;;;;;12.50;55.94;99788.44;4992912;28;982;-47
2024/03/06 13:33:07;;;;;;;;;;;;;;;12.30;56.58;99793.84;4992975;28;806;-48
2024/03/06 13:35:34;;;;;;;;;;;;;;;12.01;58.45;99802.50;4992889;28;838;-46